This is the latest recevied weather packets stored in our database for station/object LKPO. If no packets are shown the sender has not sent any weather packets the latest 1 day(s).
| Time | Temp. | Humidity | Pressure | Rain* | Wind** | Luminosity | Snow |
|---|---|---|---|---|---|---|---|
| 1778023282 | 13.89° C | 67% | - | - | 2.24 m/s, 90° | - | - |
| 1778019683 | 15° C | 58% | - | - | 4.02 m/s, 120° | - | - |
| 1778016132 | 15° C | 58% | - | - | 5.36 m/s, 140° | - | - |
| 1778012498 | 17.22° C | 48% | - | - | 5.36 m/s, 140° | - | - |
| 1778008915 | 18.89° C | 42% | - | - | 6.26 m/s, 150° | - | - |
| 1778005298 | 22.22° C | 37% | - | - | 8.05 m/s, 150° | - | - |
| 1778001715 | 23.89° C | 33% | - | - | 7.15 m/s, 140° | - | - |
| 1777998191 | 26.11° C | 31% | - | - | 7.15 m/s, 150° | - | - |
| 1777994497 | 26.11° C | 22% | - | - | 8.05 m/s, 160° | - | - |
| 1777990898 | 26.11° C | 22% | - | - | 8.94 m/s, 160° | - | - |
| 1777987285 | 25° C | 25% | - | - | 8.05 m/s, 150° | - | - |
| 1777983684 | 25° C | 29% | - | - | 8.05 m/s, 170° | - | - |
| 1777980085 | 25° C | 29% | - | - | 7.15 m/s, 160° | - | - |
| 1777976485 | 22.22° C | 35% | - | - | 6.26 m/s, 140° | - | - |
| 1777972883 | 20° C | 42% | - | - | 4.02 m/s, 180° | - | - |
| 1777969285 | 17.78° C | 45% | - | - | 2.24 m/s, 200° | - | - |
| 1777965684 | 15° C | 54% | - | - | 0.89 m/s, 200° | - | - |
| 1777962085 | 13.89° C | 58% | - | - | 0 m/s | - | - |
| 1777958482 | 11.11° C | 66% | - | - | 0.89 m/s, 310° | - | - |
| 1777954883 | 7.22° C | 75% | - | - | 0.89 m/s, 290° | - | - |
| 1777951283 | 8.89° C | 70% | - | - | 2.24 m/s, 310° | - | - |
| 1777947682 | 7.78° C | 75% | - | - | 2.24 m/s, 310° | - | - |
| 1777944085 | 8.89° C | 76% | - | - | 0.89 m/s, 320° | - | - |
| 1777940483 | 7.78° C | 81% | - | - | 0.89 m/s, 320° | - | - |
* Rain since midnight (hover to see other rain measurements)
** Current wind speed in m/s (hover to see current wind gust speed)